sensor_id;sensor_type;location;lat;lon;timestamp;temperature;humidity
54178;DHT22;40085;53.004;6.770;2023-03-13T00:01:26;9.00;99.90
54178;DHT22;40085;53.004;6.770;2023-03-13T00:03:52;8.90;99.90
54178;DHT22;40085;53.004;6.770;2023-03-13T00:06:20;9.70;99.90
54178;DHT22;40085;53.004;6.770;2023-03-13T00:08:46;8.90;99.90
54178;DHT22;40085;53.004;6.770;2023-03-13T00:11:13;8.90;99.90
54178;DHT22;40085;53.004;6.770;2023-03-13T00:13:40;8.80;99.90
54178;DHT22;40085;53.004;6.770;2023-03-13T00:16:09;8.80;99.90
54178;DHT22;40085;53.004;6.770;2023-03-13T00:18:35;8.80;99.90
54178;DHT22;40085;53.004;6.770;2023-03-13T00:21:06;8.70;99.90
54178;DHT22;40085;53.004;6.770;2023-03-13T00:23:33;8.80;99.90
54178;DHT22;40085;53.004;6.770;2023-03-13T00:26:00;8.70;99.90
54178;DHT22;40085;53.004;6.770;2023-03-13T00:28:27;8.70;99.90
54178;DHT22;40085;53.004;6.770;2023-03-13T00:33:38;8.70;99.90
54178;DHT22;40085;53.004;6.770;2023-03-13T00:36:07;8.70;99.90
54178;DHT22;40085;53.004;6.770;2023-03-13T00:38:33;8.60;99.90
54178;DHT22;40085;53.004;6.770;2023-03-13T00:41:13;9.10;99.90
54178;DHT22;40085;53.004;6.770;2023-03-13T00:43:41;8.70;99.90
54178;DHT22;40085;53.004;6.770;2023-03-13T00:46:08;9.00;99.90
54178;DHT22;40085;53.004;6.770;2023-03-13T00:48:34;8.70;99.90
54178;DHT22;40085;53.004;6.770;2023-03-13T00:51:00;8.60;99.90
54178;DHT22;40085;53.004;6.770;2023-03-13T00:53:26;8.70;99.90
54178;DHT22;40085;53.004;6.770;2023-03-13T00:55:55;8.60;99.90
54178;DHT22;40085;53.004;6.770;2023-03-13T00:58:23;8.90;99.90
54178;DHT22;40085;53.004;6.770;2023-03-13T01:00:49;8.70;99.90
54178;DHT22;40085;53.004;6.770;2023-03-13T01:03:15;8.70;99.90
54178;DHT22;40085;53.004;6.770;2023-03-13T01:05:41;8.60;99.90
54178;DHT22;40085;53.004;6.770;2023-03-13T01:08:07;8.50;99.90
54178;DHT22;40085;53.004;6.770;2023-03-13T01:10:33;8.60;99.90
54178;DHT22;40085;53.004;6.770;2023-03-13T01:12:58;8.60;99.90
54178;DHT22;40085;53.004;6.770;2023-03-13T01:17:50;8.50;99.90
54178;DHT22;40085;53.004;6.770;2023-03-13T01:20:16;8.70;99.90
54178;DHT22;40085;53.004;6.770;2023-03-13T01:22:42;8.50;99.90
54178;DHT22;40085;53.004;6.770;2023-03-13T01:25:08;8.50;99.90
54178;DHT22;40085;53.004;6.770;2023-03-13T01:27:33;8.30;99.90
54178;DHT22;40085;53.004;6.770;2023-03-13T01:29:59;8.50;99.90
54178;DHT22;40085;53.004;6.770;2023-03-13T01:32:24;9.00;99.90
54178;DHT22;40085;53.004;6.770;2023-03-13T01:34:50;8.50;99.90
54178;DHT22;40085;53.004;6.770;2023-03-13T01:37:16;8.50;99.90
54178;DHT22;40085;53.004;6.770;2023-03-13T01:39:41;8.50;99.90
54178;DHT22;40085;53.004;6.770;2023-03-13T01:42:07;8.50;99.90
54178;DHT22;40085;53.004;6.770;2023-03-13T01:44:56;8.50;99.90
54178;DHT22;40085;53.004;6.770;2023-03-13T01:47:22;8.50;99.90
54178;DHT22;40085;53.004;6.770;2023-03-13T01:49:49;8.50;99.90
54178;DHT22;40085;53.004;6.770;2023-03-13T01:52:23;8.50;99.90
54178;DHT22;40085;53.004;6.770;2023-03-13T01:55:03;8.50;99.90
54178;DHT22;40085;53.004;6.770;2023-03-13T01:57:36;8.50;99.90
54178;DHT22;40085;53.004;6.770;2023-03-13T02:00:08;8.60;99.90
54178;DHT22;40085;53.004;6.770;2023-03-13T02:02:37;8.50;99.90
54178;DHT22;40085;53.004;6.770;2023-03-13T02:05:06;8.60;99.90
54178;DHT22;40085;53.004;6.770;2023-03-13T02:10:10;8.60;99.90
54178;DHT22;40085;53.004;6.770;2023-03-13T02:12:39;8.50;99.90
54178;DHT22;40085;53.004;6.770;2023-03-13T02:15:09;8.60;99.90
54178;DHT22;40085;53.004;6.770;2023-03-13T02:20:04;8.60;99.90
54178;DHT22;40085;53.004;6.770;2023-03-13T02:22:44;8.70;99.90
54178;DHT22;40085;53.004;6.770;2023-03-13T02:30:33;8.60;99.90
54178;DHT22;40085;53.004;6.770;2023-03-13T02:33:00;8.60;99.90
54178;DHT22;40085;53.004;6.770;2023-03-13T02:35:27;8.50;99.90
54178;DHT22;40085;53.004;6.770;2023-03-13T02:37:56;8.60;99.90
54178;DHT22;40085;53.004;6.770;2023-03-13T02:40:30;8.60;99.90
54178;DHT22;40085;53.004;6.770;2023-03-13T02:43:00;8.60;99.90
54178;DHT22;40085;53.004;6.770;2023-03-13T02:45:26;8.70;99.90
54178;DHT22;40085;53.004;6.770;2023-03-13T02:47:52;8.60;99.90
54178;DHT22;40085;53.004;6.770;2023-03-13T02:50:18;8.70;99.90
54178;DHT22;40085;53.004;6.770;2023-03-13T02:52:45;8.90;99.90
54178;DHT22;40085;53.004;6.770;2023-03-13T02:55:28;8.70;99.90
54178;DHT22;40085;53.004;6.770;2023-03-13T02:57:55;8.70;99.90
54178;DHT22;40085;53.004;6.770;2023-03-13T03:00:21;8.70;99.90
54178;DHT22;40085;53.004;6.770;2023-03-13T03:02:53;8.80;99.90
54178;DHT22;40085;53.004;6.770;2023-03-13T03:05:20;8.80;99.90
54178;DHT22;40085;53.004;6.770;2023-03-13T03:07:47;8.50;99.90
54178;DHT22;40085;53.004;6.770;2023-03-13T03:10:13;8.80;99.90
54178;DHT22;40085;53.004;6.770;2023-03-13T03:12:39;8.80;99.90
54178;DHT22;40085;53.004;6.770;2023-03-13T03:15:05;8.80;99.90
54178;DHT22;40085;53.004;6.770;2023-03-13T03:17:30;8.90;99.90
54178;DHT22;40085;53.004;6.770;2023-03-13T03:19:56;8.50;99.90
54178;DHT22;40085;53.004;6.770;2023-03-13T03:22:21;8.80;99.90
54178;DHT22;40085;53.004;6.770;2023-03-13T03:24:47;8.70;99.90
54178;DHT22;40085;53.004;6.770;2023-03-13T03:27:13;8.80;99.90
54178;DHT22;40085;53.004;6.770;2023-03-13T03:29:38;8.90;99.90
54178;DHT22;40085;53.004;6.770;2023-03-13T03:32:04;8.90;99.90
54178;DHT22;40085;53.004;6.770;2023-03-13T03:36:56;8.90;99.90
54178;DHT22;40085;53.004;6.770;2023-03-13T03:39:21;9.00;99.90
54178;DHT22;40085;53.004;6.770;2023-03-13T03:41:47;8.90;99.90
54178;DHT22;40085;53.004;6.770;2023-03-13T03:44:12;9.00;99.90
54178;DHT22;40085;53.004;6.770;2023-03-13T03:46:38;9.10;99.90
54178;DHT22;40085;53.004;6.770;2023-03-13T03:49:03;9.10;99.90
54178;DHT22;40085;53.004;6.770;2023-03-13T03:51:29;9.10;99.90
54178;DHT22;40085;53.004;6.770;2023-03-13T03:53:55;9.10;99.90
54178;DHT22;40085;53.004;6.770;2023-03-13T03:56:20;10.30;99.90
54178;DHT22;40085;53.004;6.770;2023-03-13T03:58:46;9.20;99.90
54178;DHT22;40085;53.004;6.770;2023-03-13T04:01:11;9.30;99.90
54178;DHT22;40085;53.004;6.770;2023-03-13T04:03:37;9.30;99.90
54178;DHT22;40085;53.004;6.770;2023-03-13T04:06:03;9.30;99.90
54178;DHT22;40085;53.004;6.770;2023-03-13T04:08:28;9.40;99.90
54178;DHT22;40085;53.004;6.770;2023-03-13T04:10:54;9.40;99.90
54178;DHT22;40085;53.004;6.770;2023-03-13T04:13:20;9.40;99.90
54178;DHT22;40085;53.004;6.770;2023-03-13T04:15:45;10.90;99.90
54178;DHT22;40085;53.004;6.770;2023-03-13T04:18:11;9.50;99.90
54178;DHT22;40085;53.004;6.770;2023-03-13T04:20:37;9.60;99.90
54178;DHT22;40085;53.004;6.770;2023-03-13T04:23:03;9.60;99.90
54178;DHT22;40085;53.004;6.770;2023-03-13T04:25:28;11.20;99.90
54178;DHT22;40085;53.004;6.770;2023-03-13T04:27:54;9.70;99.90
54178;DHT22;40085;53.004;6.770;2023-03-13T04:30:19;10.90;99.90
54178;DHT22;40085;53.004;6.770;2023-03-13T04:32:45;10.00;99.90
54178;DHT22;40085;53.004;6.770;2023-03-13T04:35:11;9.80;99.90
54178;DHT22;40085;53.004;6.770;2023-03-13T04:37:36;9.90;99.90
54178;DHT22;40085;53.004;6.770;2023-03-13T04:40:02;9.80;99.90
54178;DHT22;40085;53.004;6.770;2023-03-13T04:42:28;10.00;99.90
54178;DHT22;40085;53.004;6.770;2023-03-13T04:44:54;10.00;99.90
54178;DHT22;40085;53.004;6.770;2023-03-13T04:47:19;10.10;99.90
54178;DHT22;40085;53.004;6.770;2023-03-13T04:49:45;10.10;99.90
54178;DHT22;40085;53.004;6.770;2023-03-13T04:52:10;10.20;99.90
54178;DHT22;40085;53.004;6.770;2023-03-13T04:54:37;10.60;99.90
54178;DHT22;40085;53.004;6.770;2023-03-13T04:57:02;10.30;99.90
54178;DHT22;40085;53.004;6.770;2023-03-13T04:59:28;10.30;99.90
54178;DHT22;40085;53.004;6.770;2023-03-13T05:01:54;11.30;99.90
54178;DHT22;40085;53.004;6.770;2023-03-13T05:04:19;10.30;99.90
54178;DHT22;40085;53.004;6.770;2023-03-13T05:06:45;10.40;99.90
54178;DHT22;40085;53.004;6.770;2023-03-13T05:09:11;10.40;99.90
54178;DHT22;40085;53.004;6.770;2023-03-13T05:11:36;10.40;99.90
54178;DHT22;40085;53.004;6.770;2023-03-13T05:14:02;10.50;99.90
54178;DHT22;40085;53.004;6.770;2023-03-13T05:16:28;11.30;99.90
54178;DHT22;40085;53.004;6.770;2023-03-13T05:18:54;10.60;99.90
54178;DHT22;40085;53.004;6.770;2023-03-13T05:21:19;12.00;99.90
54178;DHT22;40085;53.004;6.770;2023-03-13T05:23:45;10.80;99.90
54178;DHT22;40085;53.004;6.770;2023-03-13T05:26:11;10.90;99.90
54178;DHT22;40085;53.004;6.770;2023-03-13T05:28:36;10.90;99.90
54178;DHT22;40085;53.004;6.770;2023-03-13T05:31:02;10.90;99.90
54178;DHT22;40085;53.004;6.770;2023-03-13T05:33:27;11.00;99.90
54178;DHT22;40085;53.004;6.770;2023-03-13T05:35:53;10.90;99.90
54178;DHT22;40085;53.004;6.770;2023-03-13T05:38:18;11.30;99.90
54178;DHT22;40085;53.004;6.770;2023-03-13T05:40:44;11.00;99.90
54178;DHT22;40085;53.004;6.770;2023-03-13T05:43:10;11.10;99.90
54178;DHT22;40085;53.004;6.770;2023-03-13T05:45:35;10.90;99.90
54178;DHT22;40085;53.004;6.770;2023-03-13T05:48:01;12.10;99.90
54178;DHT22;40085;53.004;6.770;2023-03-13T05:50:27;11.10;99.90
54178;DHT22;40085;53.004;6.770;2023-03-13T05:52:52;11.20;99.90
54178;DHT22;40085;53.004;6.770;2023-03-13T05:55:18;11.20;99.90
54178;DHT22;40085;53.004;6.770;2023-03-13T05:57:47;11.20;99.90
54178;DHT22;40085;53.004;6.770;2023-03-13T06:00:15;11.00;99.90
54178;DHT22;40085;53.004;6.770;2023-03-13T06:02:41;11.20;99.90
54178;DHT22;40085;53.004;6.770;2023-03-13T06:05:08;11.00;99.90
54178;DHT22;40085;53.004;6.770;2023-03-13T06:07:34;11.70;99.90
54178;DHT22;40085;53.004;6.770;2023-03-13T06:09:59;11.30;99.90
54178;DHT22;40085;53.004;6.770;2023-03-13T06:12:25;11.00;99.90
54178;DHT22;40085;53.004;6.770;2023-03-13T06:14:50;11.00;99.90
54178;DHT22;40085;53.004;6.770;2023-03-13T06:17:16;11.30;99.90
54178;DHT22;40085;53.004;6.770;2023-03-13T06:19:41;11.30;99.90
54178;DHT22;40085;53.004;6.770;2023-03-13T06:22:07;11.10;99.90
54178;DHT22;40085;53.004;6.770;2023-03-13T06:24:33;11.40;99.90
54178;DHT22;40085;53.004;6.770;2023-03-13T06:29:24;11.40;99.90
54178;DHT22;40085;53.004;6.770;2023-03-13T06:31:50;11.40;99.90
54178;DHT22;40085;53.004;6.770;2023-03-13T06:34:16;11.40;99.90
54178;DHT22;40085;53.004;6.770;2023-03-13T06:36:43;11.50;99.90
54178;DHT22;40085;53.004;6.770;2023-03-13T06:39:09;11.60;99.90
54178;DHT22;40085;53.004;6.770;2023-03-13T06:41:35;12.40;99.90
54178;DHT22;40085;53.004;6.770;2023-03-13T06:44:01;11.50;99.90
54178;DHT22;40085;53.004;6.770;2023-03-13T06:46:27;11.50;99.90
54178;DHT22;40085;53.004;6.770;2023-03-13T06:48:52;11.50;99.90
54178;DHT22;40085;53.004;6.770;2023-03-13T06:51:20;12.20;99.90
54178;DHT22;40085;53.004;6.770;2023-03-13T06:53:46;11.40;99.90
54178;DHT22;40085;53.004;6.770;2023-03-13T06:56:12;11.60;99.90
54178;DHT22;40085;53.004;6.770;2023-03-13T06:58:38;11.50;99.90
54178;DHT22;40085;53.004;6.770;2023-03-13T07:01:08;11.50;99.90
54178;DHT22;40085;53.004;6.770;2023-03-13T07:03:35;11.50;99.90
54178;DHT22;40085;53.004;6.770;2023-03-13T07:06:02;11.60;99.90
54178;DHT22;40085;53.004;6.770;2023-03-13T07:08:28;11.60;99.90
54178;DHT22;40085;53.004;6.770;2023-03-13T07:10:58;11.70;99.90
54178;DHT22;40085;53.004;6.770;2023-03-13T07:13:24;11.70;99.90
54178;DHT22;40085;53.004;6.770;2023-03-13T07:15:50;11.70;99.90
54178;DHT22;40085;53.004;6.770;2023-03-13T07:18:16;11.70;99.90
54178;DHT22;40085;53.004;6.770;2023-03-13T07:20:42;12.60;99.90
54178;DHT22;40085;53.004;6.770;2023-03-13T07:23:08;11.70;99.90
54178;DHT22;40085;53.004;6.770;2023-03-13T07:25:33;11.70;99.90
54178;DHT22;40085;53.004;6.770;2023-03-13T07:27:59;11.70;99.90
54178;DHT22;40085;53.004;6.770;2023-03-13T07:30:26;11.60;99.90
54178;DHT22;40085;53.004;6.770;2023-03-13T07:32:52;11.60;99.90
54178;DHT22;40085;53.004;6.770;2023-03-13T07:35:17;11.80;99.90
54178;DHT22;40085;53.004;6.770;2023-03-13T07:37:43;12.40;99.90
54178;DHT22;40085;53.004;6.770;2023-03-13T07:40:10;11.60;99.90
54178;DHT22;40085;53.004;6.770;2023-03-13T07:42:39;11.70;99.90
54178;DHT22;40085;53.004;6.770;2023-03-13T07:45:05;11.70;99.90
54178;DHT22;40085;53.004;6.770;2023-03-13T07:47:33;11.70;99.90
54178;DHT22;40085;53.004;6.770;2023-03-13T07:49:59;11.70;99.90
54178;DHT22;40085;53.004;6.770;2023-03-13T07:52:24;11.80;99.90
54178;DHT22;40085;53.004;6.770;2023-03-13T07:54:52;11.70;99.90
54178;DHT22;40085;53.004;6.770;2023-03-13T07:57:18;13.40;99.90
54178;DHT22;40085;53.004;6.770;2023-03-13T07:59:44;11.60;99.90
54178;DHT22;40085;53.004;6.770;2023-03-13T08:02:11;12.20;99.90
54178;DHT22;40085;53.004;6.770;2023-03-13T08:04:39;11.70;99.90
54178;DHT22;40085;53.004;6.770;2023-03-13T08:07:09;11.70;99.90
54178;DHT22;40085;53.004;6.770;2023-03-13T08:09:35;11.70;99.90
54178;DHT22;40085;53.004;6.770;2023-03-13T08:12:00;11.70;99.90
54178;DHT22;40085;53.004;6.770;2023-03-13T08:14:26;11.70;99.90
54178;DHT22;40085;53.004;6.770;2023-03-13T08:16:52;11.70;99.90
54178;DHT22;40085;53.004;6.770;2023-03-13T08:19:18;11.80;99.90
54178;DHT22;40085;53.004;6.770;2023-03-13T08:21:43;11.70;99.90
54178;DHT22;40085;53.004;6.770;2023-03-13T08:24:10;11.80;99.90
54178;DHT22;40085;53.004;6.770;2023-03-13T08:26:38;12.30;99.90
54178;DHT22;40085;53.004;6.770;2023-03-13T08:29:10;11.70;99.90
54178;DHT22;40085;53.004;6.770;2023-03-13T08:31:41;12.90;99.90
54178;DHT22;40085;53.004;6.770;2023-03-13T08:34:07;11.70;99.90
54178;DHT22;40085;53.004;6.770;2023-03-13T08:36:35;11.70;99.90
54178;DHT22;40085;53.004;6.770;2023-03-13T08:39:04;11.70;99.90
54178;DHT22;40085;53.004;6.770;2023-03-13T08:41:33;11.80;99.90
54178;DHT22;40085;53.004;6.770;2023-03-13T08:44:00;11.80;99.90
54178;DHT22;40085;53.004;6.770;2023-03-13T08:46:29;12.40;99.90
54178;DHT22;40085;53.004;6.770;2023-03-13T08:48:55;11.80;99.90
54178;DHT22;40085;53.004;6.770;2023-03-13T08:51:22;11.90;99.90
54178;DHT22;40085;53.004;6.770;2023-03-13T08:53:49;11.90;99.90
54178;DHT22;40085;53.004;6.770;2023-03-13T08:56:17;11.90;99.90
54178;DHT22;40085;53.004;6.770;2023-03-13T08:58:43;11.90;99.90
54178;DHT22;40085;53.004;6.770;2023-03-13T09:01:13;11.90;99.90
54178;DHT22;40085;53.004;6.770;2023-03-13T09:03:40;13.50;99.90
54178;DHT22;40085;53.004;6.770;2023-03-13T09:06:07;11.90;99.90
54178;DHT22;40085;53.004;6.770;2023-03-13T09:08:33;12.00;99.90
54178;DHT22;40085;53.004;6.770;2023-03-13T09:11:02;12.10;99.90
54178;DHT22;40085;53.004;6.770;2023-03-13T09:13:29;12.30;99.90
54178;DHT22;40085;53.004;6.770;2023-03-13T09:16:00;12.30;99.90
54178;DHT22;40085;53.004;6.770;2023-03-13T09:18:27;12.40;99.90
54178;DHT22;40085;53.004;6.770;2023-03-13T09:20:52;12.80;99.90
54178;DHT22;40085;53.004;6.770;2023-03-13T09:23:19;12.50;99.90
54178;DHT22;40085;53.004;6.770;2023-03-13T09:25:44;12.50;99.90
54178;DHT22;40085;53.004;6.770;2023-03-13T09:28:11;12.40;99.90
54178;DHT22;40085;53.004;6.770;2023-03-13T09:30:37;12.50;99.90
54178;DHT22;40085;53.004;6.770;2023-03-13T09:33:03;12.40;99.90
54178;DHT22;40085;53.004;6.770;2023-03-13T09:35:28;12.40;99.90
54178;DHT22;40085;53.004;6.770;2023-03-13T09:37:54;12.40;99.90
54178;DHT22;40085;53.004;6.770;2023-03-13T09:40:23;12.50;99.90
54178;DHT22;40085;53.004;6.770;2023-03-13T09:42:53;12.50;99.90
54178;DHT22;40085;53.004;6.770;2023-03-13T09:45:34;12.50;99.90
54178;DHT22;40085;53.004;6.770;2023-03-13T09:51:16;12.90;99.90
54178;DHT22;40085;53.004;6.770;2023-03-13T09:53:58;12.50;99.90
54178;DHT22;40085;53.004;6.770;2023-03-13T09:56:29;13.80;99.90
54178;DHT22;40085;53.004;6.770;2023-03-13T09:59:15;12.70;99.90
54178;DHT22;40085;53.004;6.770;2023-03-13T10:01:44;12.70;99.90
54178;DHT22;40085;53.004;6.770;2023-03-13T10:04:26;12.70;99.90
54178;DHT22;40085;53.004;6.770;2023-03-13T10:06:53;12.80;99.90
54178;DHT22;40085;53.004;6.770;2023-03-13T10:09:29;13.00;99.90
54178;DHT22;40085;53.004;6.770;2023-03-13T10:17:38;13.30;99.90
54178;DHT22;40085;53.004;6.770;2023-03-13T10:20:28;13.30;99.90
54178;DHT22;40085;53.004;6.770;2023-03-13T10:23:26;13.40;99.90
54178;DHT22;40085;53.004;6.770;2023-03-13T10:25:59;13.40;99.90
54178;DHT22;40085;53.004;6.770;2023-03-13T10:28:24;13.50;99.90
54178;DHT22;40085;53.004;6.770;2023-03-13T10:30:56;13.50;99.90
54178;DHT22;40085;53.004;6.770;2023-03-13T10:33:27;13.60;99.90
54178;DHT22;40085;53.004;6.770;2023-03-13T10:36:09;13.60;99.90
54178;DHT22;40085;53.004;6.770;2023-03-13T10:38:46;13.70;99.90
54178;DHT22;40085;53.004;6.770;2023-03-13T10:41:26;13.70;99.90
54178;DHT22;40085;53.004;6.770;2023-03-13T10:43:54;13.80;99.90
54178;DHT22;40085;53.004;6.770;2023-03-13T10:46:31;13.80;99.90
54178;DHT22;40085;53.004;6.770;2023-03-13T10:49:01;13.90;99.90
54178;DHT22;40085;53.004;6.770;2023-03-13T10:51:38;13.90;99.90
54178;DHT22;40085;53.004;6.770;2023-03-13T10:54:34;14.10;99.90
54178;DHT22;40085;53.004;6.770;2023-03-13T10:59:47;14.10;99.90
54178;DHT22;40085;53.004;6.770;2023-03-13T11:04:51;14.10;99.90
54178;DHT22;40085;53.004;6.770;2023-03-13T11:07:31;15.50;99.90
54178;DHT22;40085;53.004;6.770;2023-03-13T11:12:51;14.30;99.90
54178;DHT22;40085;53.004;6.770;2023-03-13T11:15:23;14.30;99.90
54178;DHT22;40085;53.004;6.770;2023-03-13T11:18:09;14.40;99.90
54178;DHT22;40085;53.004;6.770;2023-03-13T11:20:43;14.40;99.90
54178;DHT22;40085;53.004;6.770;2023-03-13T11:23:13;14.50;67.90
54178;DHT22;40085;53.004;6.770;2023-03-13T11:28:57;14.40;34.80
54178;DHT22;40085;53.004;6.770;2023-03-13T11:34:33;14.60;38.60
54178;DHT22;40085;53.004;6.770;2023-03-13T11:37:08;14.40;39.00
54178;DHT22;40085;53.004;6.770;2023-03-13T11:56:51;14.90;1.00
54178;DHT22;40085;53.004;6.770;2023-03-13T12:02:30;14.90;1.00
54178;DHT22;40085;53.004;6.770;2023-03-13T12:05:03;14.90;1.00
54178;DHT22;40085;53.004;6.770;2023-03-13T12:07:33;14.90;1.00
54178;DHT22;40085;53.004;6.770;2023-03-13T12:10:03;14.90;1.00
54178;DHT22;40085;53.004;6.770;2023-03-13T12:12:50;15.40;1.00
54178;DHT22;40085;53.004;6.770;2023-03-13T12:20:46;15.40;1.00
54178;DHT22;40085;53.004;6.770;2023-03-13T12:54:49;16.60;94.60
54178;DHT22;40085;53.004;6.770;2023-03-13T13:00:24;16.10;99.90
54178;DHT22;40085;53.004;6.770;2023-03-13T13:03:09;15.70;1.00
54178;DHT22;40085;53.004;6.770;2023-03-13T13:06:09;15.50;1.00
54178;DHT22;40085;53.004;6.770;2023-03-13T13:17:00;15.50;1.00
54178;DHT22;40085;53.004;6.770;2023-03-13T13:25:24;15.70;99.90
54178;DHT22;40085;53.004;6.770;2023-03-13T13:27:47;15.60;99.90
54178;DHT22;40085;53.004;6.770;2023-03-13T13:32:49;16.00;1.00
54178;DHT22;40085;53.004;6.770;2023-03-13T13:35:27;15.60;99.90
54178;DHT22;40085;53.004;6.770;2023-03-13T13:43:22;15.50;99.90
54178;DHT22;40085;53.004;6.770;2023-03-13T13:46:24;15.60;99.90
54178;DHT22;40085;53.004;6.770;2023-03-13T13:49:17;15.60;81.50
54178;DHT22;40085;53.004;6.770;2023-03-13T13:57:09;15.70;99.90
54178;DHT22;40085;53.004;6.770;2023-03-13T13:59:41;15.70;99.90
54178;DHT22;40085;53.004;6.770;2023-03-13T14:04:37;15.80;29.20
54178;DHT22;40085;53.004;6.770;2023-03-13T14:07:05;15.80;99.90
54178;DHT22;40085;53.004;6.770;2023-03-13T14:12:33;15.60;99.90
54178;DHT22;40085;53.004;6.770;2023-03-13T14:20:36;16.10;71.60
54178;DHT22;40085;53.004;6.770;2023-03-13T14:23:04;15.30;99.90
54178;DHT22;40085;53.004;6.770;2023-03-13T14:25:48;15.20;1.00
54178;DHT22;40085;53.004;6.770;2023-03-13T14:28:25;15.20;99.90
54178;DHT22;40085;53.004;6.770;2023-03-13T14:30:53;15.20;99.90
54178;DHT22;40085;53.004;6.770;2023-03-13T14:33:19;15.20;1.00
54178;DHT22;40085;53.004;6.770;2023-03-13T14:35:45;15.70;99.90
54178;DHT22;40085;53.004;6.770;2023-03-13T14:38:16;15.30;73.60
54178;DHT22;40085;53.004;6.770;2023-03-13T14:40:42;15.70;1.00
54178;DHT22;40085;53.004;6.770;2023-03-13T14:43:22;15.60;99.90
54178;DHT22;40085;53.004;6.770;2023-03-13T14:45:49;15.50;1.00
54178;DHT22;40085;53.004;6.770;2023-03-13T14:48:19;15.50;1.00
54178;DHT22;40085;53.004;6.770;2023-03-13T14:50:47;15.60;1.00
54178;DHT22;40085;53.004;6.770;2023-03-13T14:53:18;15.20;1.00
54178;DHT22;40085;53.004;6.770;2023-03-13T14:55:45;15.30;1.00
54178;DHT22;40085;53.004;6.770;2023-03-13T14:58:27;15.00;1.00
54178;DHT22;40085;53.004;6.770;2023-03-13T15:00:54;15.10;45.80
54178;DHT22;40085;53.004;6.770;2023-03-13T15:03:28;15.00;1.00
54178;DHT22;40085;53.004;6.770;2023-03-13T15:08:36;15.40;99.90
54178;DHT22;40085;53.004;6.770;2023-03-13T15:11:26;16.80;1.00
54178;DHT22;40085;53.004;6.770;2023-03-13T15:13:53;15.40;1.00
54178;DHT22;40085;53.004;6.770;2023-03-13T15:16:20;15.70;99.90
54178;DHT22;40085;53.004;6.770;2023-03-13T15:18:47;15.20;99.90
54178;DHT22;40085;53.004;6.770;2023-03-13T15:23:40;16.50;99.90
54178;DHT22;40085;53.004;6.770;2023-03-13T15:26:06;16.30;99.90
54178;DHT22;40085;53.004;6.770;2023-03-13T15:28:32;15.20;99.90
54178;DHT22;40085;53.004;6.770;2023-03-13T15:30:59;16.50;99.90
54178;DHT22;40085;53.004;6.770;2023-03-13T15:33:27;15.70;99.90
54178;DHT22;40085;53.004;6.770;2023-03-13T15:35:53;16.10;99.90
54178;DHT22;40085;53.004;6.770;2023-03-13T15:38:24;16.20;65.20
54178;DHT22;40085;53.004;6.770;2023-03-13T15:40:50;16.10;99.90
54178;DHT22;40085;53.004;6.770;2023-03-13T15:43:17;15.70;1.00
54178;DHT22;40085;53.004;6.770;2023-03-13T15:45:44;15.50;1.00
54178;DHT22;40085;53.004;6.770;2023-03-13T15:48:21;15.20;99.90
54178;DHT22;40085;53.004;6.770;2023-03-13T15:50:58;15.10;1.00
54178;DHT22;40085;53.004;6.770;2023-03-13T15:53:28;15.90;1.00
54178;DHT22;40085;53.004;6.770;2023-03-13T15:55:56;15.00;1.00
54178;DHT22;40085;53.004;6.770;2023-03-13T15:58:22;16.00;99.90
54178;DHT22;40085;53.004;6.770;2023-03-13T16:00:48;15.30;99.90
54178;DHT22;40085;53.004;6.770;2023-03-13T16:03:21;14.80;99.90
54178;DHT22;40085;53.004;6.770;2023-03-13T16:05:49;14.80;99.90
54178;DHT22;40085;53.004;6.770;2023-03-13T16:08:22;14.70;99.90
54178;DHT22;40085;53.004;6.770;2023-03-13T16:10:48;14.60;99.90
54178;DHT22;40085;53.004;6.770;2023-03-13T16:13:15;14.50;99.90
54178;DHT22;40085;53.004;6.770;2023-03-13T16:15:40;14.30;1.00
54178;DHT22;40085;53.004;6.770;2023-03-13T16:18:11;14.30;1.00
54178;DHT22;40085;53.004;6.770;2023-03-13T16:20:38;14.30;1.00
54178;DHT22;40085;53.004;6.770;2023-03-13T16:23:03;14.50;1.00
54178;DHT22;40085;53.004;6.770;2023-03-13T16:25:30;14.10;1.00
54178;DHT22;40085;53.004;6.770;2023-03-13T16:27:57;14.00;1.00
54178;DHT22;40085;53.004;6.770;2023-03-13T16:30:29;14.00;32.00
54178;DHT22;40085;53.004;6.770;2023-03-13T16:32:55;13.90;99.90
54178;DHT22;40085;53.004;6.770;2023-03-13T16:35:21;14.30;99.90
54178;DHT22;40085;53.004;6.770;2023-03-13T16:37:47;13.70;99.90
54178;DHT22;40085;53.004;6.770;2023-03-13T16:40:19;13.70;1.00
54178;DHT22;40085;53.004;6.770;2023-03-13T16:42:45;13.60;97.70
54178;DHT22;40085;53.004;6.770;2023-03-13T16:45:10;13.60;1.00
54178;DHT22;40085;53.004;6.770;2023-03-13T16:47:37;15.70;1.00
54178;DHT22;40085;53.004;6.770;2023-03-13T16:50:17;13.60;12.80
54178;DHT22;40085;53.004;6.770;2023-03-13T16:52:44;15.50;5.30
54178;DHT22;40085;53.004;6.770;2023-03-13T16:55:10;13.80;1.00
54178;DHT22;40085;53.004;6.770;2023-03-13T16:57:36;14.80;1.00
54178;DHT22;40085;53.004;6.770;2023-03-13T17:00:02;13.70;1.00
54178;DHT22;40085;53.004;6.770;2023-03-13T17:02:29;13.50;99.90
54178;DHT22;40085;53.004;6.770;2023-03-13T17:04:55;14.00;1.00
54178;DHT22;40085;53.004;6.770;2023-03-13T17:07:24;13.10;1.00
54178;DHT22;40085;53.004;6.770;2023-03-13T17:09:55;12.80;99.90
54178;DHT22;40085;53.004;6.770;2023-03-13T17:12:20;14.50;99.90
54178;DHT22;40085;53.004;6.770;2023-03-13T17:14:46;12.60;99.90
54178;DHT22;40085;53.004;6.770;2023-03-13T17:17:15;12.80;99.90
54178;DHT22;40085;53.004;6.770;2023-03-13T17:19:42;12.40;99.90
54178;DHT22;40085;53.004;6.770;2023-03-13T17:22:11;12.80;1.00
54178;DHT22;40085;53.004;6.770;2023-03-13T17:24:37;13.10;99.90
54178;DHT22;40085;53.004;6.770;2023-03-13T17:27:03;12.20;99.90
54178;DHT22;40085;53.004;6.770;2023-03-13T17:29:28;13.00;99.90
54178;DHT22;40085;53.004;6.770;2023-03-13T17:31:54;12.40;1.00
54178;DHT22;40085;53.004;6.770;2023-03-13T17:34:20;12.10;1.00
54178;DHT22;40085;53.004;6.770;2023-03-13T17:36:47;12.30;1.00
54178;DHT22;40085;53.004;6.770;2023-03-13T17:39:13;12.10;24.70
54178;DHT22;40085;53.004;6.770;2023-03-13T17:41:40;12.30;32.10
54178;DHT22;40085;53.004;6.770;2023-03-13T17:44:05;12.00;79.60
54178;DHT22;40085;53.004;6.770;2023-03-13T17:46:46;12.00;99.90
54178;DHT22;40085;53.004;6.770;2023-03-13T17:49:13;12.80;97.60
54178;DHT22;40085;53.004;6.770;2023-03-13T17:51:39;11.90;99.90
54178;DHT22;40085;53.004;6.770;2023-03-13T17:54:07;11.90;99.90
54178;DHT22;40085;53.004;6.770;2023-03-13T17:56:34;11.90;99.90
54178;DHT22;40085;53.004;6.770;2023-03-13T17:59:04;11.90;1.00
54178;DHT22;40085;53.004;6.770;2023-03-13T18:01:32;11.80;1.00
54178;DHT22;40085;53.004;6.770;2023-03-13T18:03:59;11.90;1.00
54178;DHT22;40085;53.004;6.770;2023-03-13T18:06:30;11.80;88.20
54178;DHT22;40085;53.004;6.770;2023-03-13T18:08:59;11.80;99.90
54178;DHT22;40085;53.004;6.770;2023-03-13T18:11:27;11.70;42.20
54178;DHT22;40085;53.004;6.770;2023-03-13T18:13:52;11.80;99.90